Time;durP1;ratioP1;P1;durP2;ratioP2;P2;SDS_P1;SDS_P2;PMS_P1;PMS_P2;Temp;Humidity;BMP_temperature;BMP_pressure;BME280_temperature;BME280_humidity;BME280_pressure;Samples;Min_cycle;Max_cycle;Signal;HPM_P1;HPM_P2
2021/01/03 00:01:23;;;;;;;3.50;0.10;;;0.70;99.90;;;;;;20671024;28;20042;-59
2021/01/03 00:11:25;;;;;;;1.90;0.10;;;0.70;99.90;;;;;;20677296;28;20046;-59
2021/01/03 00:21:27;;;;;;;2.85;0.30;;;0.70;99.90;;;;;;20642464;28;20100;-58
2021/01/03 00:31:29;;;;;;;0.75;0.20;;;0.70;99.90;;;;;;20675503;28;20038;-59
2021/01/03 00:41:31;;;;;;;2.03;0.40;;;0.60;99.90;;;;;;20641379;28;20104;-60
2021/01/03 00:51:33;;;;;;;2.92;0.73;;;0.60;99.90;;;;;;20673981;28;20101;-58
2021/01/03 01:01:35;;;;;;;4.85;0.47;;;0.70;99.90;;;;;;20673525;28;20405;-59
2021/01/03 01:11:40;;;;;;;2.92;0.50;;;0.60;99.90;;;;;;20669891;28;20042;-59
2021/01/03 01:21:42;;;;;;;10.38;1.02;;;0.60;99.90;;;;;;20671692;28;20093;-57
2021/01/03 01:31:44;;;;;;;4.97;0.90;;;0.60;99.90;;;;;;20667095;28;20057;-57
2021/01/03 01:41:46;;;;;;;1.60;0.40;;;0.60;99.90;;;;;;20668687;28;20069;-59
2021/01/03 01:51:51;;;;;;;209.27;7.43;;;0.60;99.90;;;;;;20669946;28;20034;-59
2021/01/03 02:02:09;;;;;;;154.80;4.85;;;0.50;99.90;;;;;;20668844;28;20547;-59
2021/01/03 02:12:30;;;;;;;282.02;7.45;;;0.50;99.90;;;;;;20668659;28;20046;-59
2021/01/03 02:22:46;;;;;;;35.35;0.90;;;0.40;99.90;;;;;;20666268;28;20485;-59
2021/01/03 02:33:01;;;;;;;0.10;0.00;;;0.40;99.90;;;;;;20666205;28;20038;-59
2021/01/03 02:43:02;;;;;;;0.28;0.00;;;0.50;99.90;;;;;;20665233;28;20046;-59
2021/01/03 02:53:04;;;;;;;1.27;0.20;;;0.40;99.90;;;;;;20665067;28;20058;-59
2021/01/03 03:03:08;;;;;;;30.52;1.45;;;0.50;99.90;;;;;;20663727;28;20054;-60
2021/01/03 03:13:09;;;;;;;0.32;0.10;;;0.50;99.90;;;;;;20663559;28;20038;-59
2021/01/03 03:23:11;;;;;;;84.57;2.97;;;0.50;99.90;;;;;;20663252;28;20041;-61
2021/01/03 03:33:13;;;;;;;101.07;3.00;;;0.50;99.90;;;;;;20661558;28;20424;-59
2021/01/03 03:43:15;;;;;;;0.35;0.20;;;0.50;99.90;;;;;;20662151;28;20046;-59
2021/01/03 03:53:17;;;;;;;0.13;0.10;;;0.50;99.90;;;;;;20660080;28;20480;-59
2021/01/03 04:03:19;;;;;;;0.00;0.00;;;0.50;99.90;;;;;;20660698;28;20054;-59
2021/01/03 04:13:22;;;;;;;1.67;0.50;;;0.50;99.90;;;;;;20661028;28;20042;-59
2021/01/03 04:23:23;;;;;;;0.70;0.40;;;0.50;99.90;;;;;;20659534;28;20093;-57
2021/01/03 04:33:25;;;;;;;0.57;0.30;;;0.60;99.90;;;;;;20659970;28;20366;-58
2021/01/03 04:43:27;;;;;;;1.15;0.15;;;0.60;99.90;;;;;;20663719;28;20050;-59
2021/01/03 04:53:35;;;;;;;0.20;0.20;;;0.60;99.90;;;;;;20673953;28;20038;-59
2021/01/03 05:04:01;;;;;;;0.10;0.10;;;0.60;99.90;;;;;;20671612;28;20116;-59
2021/01/03 05:14:28;;;;;;;0.80;0.22;;;0.60;99.90;;;;;;20671337;28;20046;-59
2021/01/03 05:24:42;;;;;;;0.32;0.20;;;0.60;99.90;;;;;;20672216;28;20116;-60
2021/01/03 05:34:44;;;;;;;0.95;0.10;;;0.60;99.90;;;;;;20653740;28;20065;-59
2021/01/03 05:45:01;;;;;;;0.03;0.00;;;0.30;99.90;;;;;;20669466;28;20065;-59
2021/01/03 05:55:06;;;;;;;0.63;0.10;;;0.00;99.90;;;;;;20668797;28;20112;-59
2021/01/03 06:05:24;;;;;;;2.35;0.30;;;0.00;99.90;;;;;;20668510;28;20112;-59
2021/01/03 06:15:41;;;;;;;3.05;0.20;;;0.10;99.90;;;;;;20667569;28;20472;-59
2021/01/03 06:25:56;;;;;;;1.55;0.10;;;0.20;99.90;;;;;;20666499;28;20050;-60
2021/01/03 06:36:25;;;;;;;0.57;0.10;;;0.30;99.90;;;;;;20665010;28;20456;-60
2021/01/03 06:46:45;;;;;;;0.45;0.10;;;0.30;99.90;;;;;;20665819;28;20096;-59
2021/01/03 06:57:11;;;;;;;0.47;0.00;;;0.20;99.90;;;;;;20584325;28;20078;-60
2021/01/03 07:07:28;;;;;;;0.10;0.10;;;0.30;99.90;;;;;;20583086;28;20118;-60
2021/01/03 07:17:58;;;;;;;0.00;0.00;;;0.30;99.90;;;;;;20583008;28;20113;-61
2021/01/03 07:28:18;;;;;;;0.45;0.10;;;0.50;99.90;;;;;;20581546;28;20023;-60
2021/01/03 07:38:25;;;;;;;0.43;0.00;;;0.50;99.90;;;;;;20581400;28;20055;-60
2021/01/03 07:48:34;;;;;;;1.33;0.25;;;0.60;99.90;;;;;;20594646;28;20043;-59
2021/01/03 07:58:36;;;;;;;0.50;0.00;;;0.50;99.90;;;;;;20661364;28;20046;-60
2021/01/03 08:08:39;;;;;;;0.40;0.10;;;0.70;99.90;;;;;;20660988;28;20042;-60
2021/01/03 08:18:53;;;;;;;0.00;0.00;;;1.00;99.90;;;;;;20664179;28;20096;-59
2021/01/03 08:29:14;;;;;;;3.10;0.10;;;1.60;99.90;;;;;;20675950;28;20042;-59
2021/01/03 08:39:17;;;;;;;0.27;0.00;;;2.20;99.90;;;;;;20675843;28;20066;-59
2021/01/03 08:49:24;;;;;;;0.45;0.00;;;2.30;99.90;;;;;;20672727;28;20065;-59
2021/01/03 08:59:26;;;;;;;0.40;0.00;;;2.70;99.90;;;;;;20673504;28;20042;-60
2021/01/03 09:09:31;;;;;;;1.05;0.20;;;3.00;99.90;;;;;;20672734;28;20074;-59
2021/01/03 09:19:55;;;;;;;0.00;0.00;;;3.10;99.90;;;;;;20670460;28;20050;-59
2021/01/03 09:30:19;;;;;;;1.17;0.10;;;3.40;99.90;;;;;;20670397;28;20085;-60
2021/01/03 09:40:38;;;;;;;0.20;0.10;;;3.60;99.90;;;;;;20670897;28;20484;-59
2021/01/03 09:50:41;;;;;;;0.95;0.10;;;4.10;99.90;;;;;;20670195;28;20038;-59
2021/01/03 10:00:49;;;;;;;1.73;0.10;;;4.40;99.90;;;;;;20667758;28;20035;-59
2021/01/03 10:10:59;;;;;;;0.88;0.20;;;4.50;99.90;;;;;;20666825;28;20097;-59
2021/01/03 10:21:33;;;;;;;1.42;0.30;;;3.80;99.90;;;;;;20665856;28;20042;-59
2021/01/03 10:31:38;;;;;;;3.58;0.40;;;3.10;99.90;;;;;;20667972;28;20543;-59
2021/01/03 10:41:42;;;;;;;2.67;0.30;;;3.30;99.90;;;;;;20309097;28;10001156;-59
2021/01/03 10:51:47;;;;;;;2.60;0.60;;;4.30;99.90;;;;;;20664838;28;20084;-60
2021/01/03 11:01:50;;;;;;;1.13;0.30;;;4.80;99.90;;;;;;20663074;28;20496;-59
2021/01/03 11:11:59;;;;;;;3.58;0.35;;;5.10;99.90;;;;;;20664183;28;20120;-61
2021/01/03 11:22:05;;;;;;;4.72;0.40;;;5.80;99.90;;;;;;20661995;28;20042;-61
2021/01/03 11:32:18;;;;;;;1.45;0.20;;;5.40;99.90;;;;;;20661760;28;20038;-60
2021/01/03 11:42:28;;;;;;;2.10;0.20;;;5.90;99.90;;;;;;20662149;28;20046;-61
2021/01/03 11:52:32;;;;;;;3.30;0.25;;;7.00;99.90;;;;;;20665533;28;20038;-61
2021/01/03 12:02:41;;;;;;;1.85;0.30;;;5.80;99.90;;;;;;20833042;23;20022;-61
2021/01/03 12:12:43;;;;;;;2.10;0.30;;;5.10;99.90;;;;;;20594720;28;20086;-61
2021/01/03 12:22:45;;;;;;;1.30;0.30;;;4.30;99.90;;;;;;20595918;28;20042;-61
2021/01/03 12:32:47;;;;;;;0.68;0.10;;;3.90;99.90;;;;;;20595077;28;20045;-61
2021/01/03 12:42:49;;;;;;;2.58;0.17;;;3.80;99.90;;;;;;20609793;28;20047;-61
2021/01/03 12:52:51;;;;;;;2.20;0.32;;;4.40;99.90;;;;;;20594255;28;20074;-61
2021/01/03 13:02:53;;;;;;;2.15;0.20;;;5.40;99.90;;;;;;20592366;28;20055;-61
2021/01/03 13:12:55;;;;;;;3.10;0.52;;;4.90;99.90;;;;;;20591706;28;20489;-61
2021/01/03 13:22:59;;;;;;;3.22;1.13;;;4.10;99.90;;;;;;20589677;28;20044;-61
2021/01/03 13:33:01;;;;;;;2.83;0.60;;;3.80;99.90;;;;;;20591008;28;20422;-61
2021/01/03 13:43:03;;;;;;;1.15;0.43;;;3.60;99.90;;;;;;20590658;28;20045;-61
2021/01/03 13:53:05;;;;;;;4.00;0.70;;;3.00;99.90;;;;;;20588868;28;20046;-61
2021/01/03 14:03:08;;;;;;;6.63;1.38;;;2.70;99.90;;;;;;20588012;28;20109;-62
2021/01/03 14:13:13;;;;;;;1.95;0.40;;;2.50;99.90;;;;;;20586546;28;20047;-61
2021/01/03 14:23:16;;;;;;;2.83;0.65;;;2.30;99.90;;;;;;20585828;28;20555;-61
2021/01/03 14:33:20;;;;;;;2.47;0.40;;;2.10;99.90;;;;;;20586713;28;20473;-62
2021/01/03 14:43:34;;;;;;;5.50;1.50;;;1.90;99.90;;;;;;20568214;28;20539;-61
2021/01/03 14:53:57;;;;;;;3.60;1.00;;;1.80;99.90;;;;;;20584023;28;20453;-61
2021/01/03 15:04:31;;;;;;;2.25;0.30;;;1.70;99.90;;;;;;20583903;28;20481;-61
2021/01/03 15:14:35;;;;;;;0.60;0.28;;;1.60;99.90;;;;;;20583622;28;20069;-61
2021/01/03 15:24:42;;;;;;;1.50;0.20;;;1.60;99.90;;;;;;20581778;28;20046;-62
2021/01/03 15:35:12;;;;;;;6.85;0.40;;;1.30;99.90;;;;;;20581258;28;20551;-61
2021/01/03 15:45:45;;;;;;;0.80;0.20;;;1.30;99.90;;;;;;20582242;28;20074;-61
2021/01/03 15:55:51;;;;;;;1.35;0.20;;;1.10;99.90;;;;;;20581542;28;20042;-60
2021/01/03 16:05:54;;;;;;;1.58;0.17;;;1.00;99.90;;;;;;20595692;28;20098;-61
2021/01/03 16:15:56;;;;;;;0.82;0.10;;;0.80;99.90;;;;;;20563793;28;20109;-61
2021/01/03 16:26:23;;;;;;;0.38;0.10;;;0.70;99.90;;;;;;20580331;28;20158;-61
2021/01/03 16:37:04;;;;;;;1.80;0.30;;;0.70;99.90;;;;;;20576036;28;20122;-61
2021/01/03 16:47:35;;;;;;;0.77;0.20;;;0.60;99.90;;;;;;20562682;28;20097;-61
2021/01/03 16:57:58;;;;;;;1.85;0.40;;;0.60;99.90;;;;;;20593904;28;20038;-61
2021/01/03 17:08:34;;;;;;;3.90;0.20;;;0.60;99.90;;;;;;20591192;28;20200;-61
2021/01/03 17:18:45;;;;;;;1.50;0.20;;;0.60;99.90;;;;;;20577178;28;20058;-61
2021/01/03 17:29:02;;;;;;;1.55;0.10;;;0.60;99.90;;;;;;20589773;28;20480;-61
2021/01/03 17:39:08;;;;;;;2.67;0.20;;;0.50;99.90;;;;;;20574030;28;20050;-61
2021/01/03 17:49:17;;;;;;;3.25;0.38;;;0.50;99.90;;;;;;20587588;28;20409;-62
2021/01/03 17:59:22;;;;;;;1.83;0.10;;;0.40;99.90;;;;;;20589763;28;20055;-62
2021/01/03 18:09:26;;;;;;;2.35;0.38;;;0.40;99.90;;;;;;20571432;28;20058;-61
2021/01/03 18:19:28;;;;;;;1.63;0.20;;;0.30;99.90;;;;;;20586205;28;20481;-61
2021/01/03 18:29:30;;;;;;;2.88;0.20;;;0.40;99.90;;;;;;20585138;28;20042;-61
2021/01/03 18:39:33;;;;;;;3.00;0.40;;;0.40;99.90;;;;;;20585387;28;20090;-62
2021/01/03 18:49:37;;;;;;;2.47;0.20;;;0.30;99.90;;;;;;20568229;28;20391;-63
2021/01/03 18:59:39;;;;;;;0.63;0.10;;;0.30;99.90;;;;;;20584809;28;20448;-61
2021/01/03 19:09:42;;;;;;;1.85;0.20;;;0.30;99.90;;;;;;20583357;28;20398;-62
2021/01/03 19:19:49;;;;;;;4.85;0.30;;;0.20;99.90;;;;;;20581815;28;20117;-62
2021/01/03 19:29:53;;;;;;;1.52;0.10;;;0.20;99.90;;;;;;20581568;28;20158;-61
2021/01/03 19:39:56;;;;;;;1.77;0.30;;;0.20;99.90;;;;;;20582708;28;20133;-62
2021/01/03 19:50:01;;;;;;;1.90;0.25;;;0.20;99.90;;;;;;20564482;28;20039;-64
2021/01/03 20:00:10;;;;;;;2.35;0.28;;;0.20;99.90;;;;;;20565112;28;20101;-62
2021/01/03 20:10:12;;;;;;;2.60;0.35;;;0.20;99.90;;;;;;20579792;28;20105;-62
2021/01/03 20:20:16;;;;;;;1.52;0.30;;;0.20;99.90;;;;;;20594322;28;20046;-62
2021/01/03 20:30:21;;;;;;;0.30;0.13;;;0.20;99.90;;;;;;20595746;28;20042;-62
2021/01/03 20:40:24;;;;;;;3.92;0.30;;;-0.10;99.90;;;;;;20595617;28;20054;-62
2021/01/03 20:50:28;;;;;;;2.10;0.38;;;-0.40;99.90;;;;;;20592793;28;20046;-64
2021/01/03 21:00:35;;;;;;;2.75;0.30;;;-0.70;99.90;;;;;;20608933;28;20106;-63
2021/01/03 21:10:42;;;;;;;1.23;0.20;;;-1.00;99.90;;;;;;20592482;28;20046;-63
2021/01/03 21:20:45;;;;;;;4.22;0.35;;;-1.20;99.90;;;;;;20591998;28;20489;-63
2021/01/03 21:31:09;;;;;;;2.40;0.20;;;-1.40;99.90;;;;;;20604682;28;20086;-63
2021/01/03 21:41:47;;;;;;;0.95;0.30;;;-1.50;99.90;;;;;;20589793;28;20047;-63
2021/01/03 21:52:18;;;;;;;0.45;0.10;;;-1.80;99.90;;;;;;20588379;28;20035;-63
2021/01/03 22:02:59;;;;;;;0.80;0.10;;;-2.40;99.90;;;;;;20587650;28;20058;-63
2021/01/03 22:13:23;;;;;;;1.08;0.20;;;-2.60;99.90;;;;;;20586911;28;20500;-63
2021/01/03 22:23:53;;;;;;;1.80;0.10;;;-2.80;99.90;;;;;;20586575;28;20038;-63
2021/01/03 22:33:59;;;;;;;0.52;0.10;;;-2.80;99.90;;;;;;20584791;28;20094;-63
2021/01/03 22:44:16;;;;;;;0.40;0.10;;;-2.60;99.90;;;;;;20552221;28;20101;-63
2021/01/03 22:54:48;;;;;;;3.70;0.25;;;-2.90;99.90;;;;;;20585359;28;20043;-63
2021/01/03 23:05:09;;;;;;;1.95;0.17;;;-2.80;99.90;;;;;;20583635;28;20054;-63
2021/01/03 23:15:20;;;;;;;3.00;0.30;;;-2.80;99.90;;;;;;20582276;28;20074;-63
2021/01/03 23:25:53;;;;;;;2.75;0.13;;;-2.70;99.90;;;;;;20582072;28;20413;-62
2021/01/03 23:36:07;;;;;;;1.63;0.30;;;-2.30;99.90;;;;;;20582539;28;20051;-63
2021/01/03 23:46:25;;;;;;;2.05;0.10;;;-2.60;99.90;;;;;;20580917;28;20039;-63
2021/01/03 23:56:55;;;;;;;0.68;0.20;;;-2.90;99.90;;;;;;20579692;28;20094;-64
